createdAt,value
2023-03-26T00:00:54.258Z,5.72
2023-03-26T00:03:57.452Z,5.72
2023-03-26T00:06:59.327Z,5.71
2023-03-26T00:10:00.935Z,5.69
2023-03-26T00:13:03.435Z,5.69
2023-03-26T00:16:05.360Z,5.68
2023-03-26T00:19:06.921Z,5.69
2023-03-26T00:22:11.173Z,5.70
2023-03-26T00:25:13.763Z,5.69
2023-03-26T00:28:17.189Z,5.69
2023-03-26T00:31:18.867Z,5.66
2023-03-26T00:34:20.812Z,5.65
2023-03-26T00:37:26.760Z,5.65
2023-03-26T00:40:29.949Z,5.63
2023-03-26T00:43:33.932Z,5.63
2023-03-26T00:46:36.381Z,5.61
2023-03-26T00:49:38.009Z,5.62
2023-03-26T00:52:39.533Z,5.62
2023-03-26T00:55:41.849Z,5.61
2023-03-26T00:58:44.003Z,5.60
2023-03-26T01:01:45.610Z,5.59
2023-03-26T01:05:02.832Z,5.60
2023-03-26T01:08:16.030Z,5.58
2023-03-26T01:11:27.583Z,5.55
2023-03-26T01:14:29.789Z,5.54
2023-03-26T01:17:34.236Z,5.50
2023-03-26T01:20:46.681Z,5.49
2023-03-26T01:23:57.489Z,5.45
2023-03-26T01:27:01.964Z,5.43
2023-03-26T01:30:25.420Z,5.42
2023-03-26T01:33:33.783Z,5.39
2023-03-26T01:36:57.751Z,5.39
2023-03-26T01:40:13.320Z,5.39
2023-03-26T01:43:38.881Z,5.38
2023-03-26T01:46:41.490Z,5.38
2023-03-26T01:49:43.103Z,5.36
2023-03-26T01:52:44.704Z,5.35
2023-03-26T01:55:56.120Z,5.35
2023-03-26T01:59:16.307Z,5.34
2023-03-26T02:02:30.733Z,5.34
2023-03-26T02:05:40.516Z,5.33
2023-03-26T02:08:49.990Z,5.30
2023-03-26T02:11:51.900Z,5.28
2023-03-26T02:14:53.850Z,5.25
2023-03-26T02:17:55.452Z,5.21
2023-03-26T02:20:57.154Z,5.19
2023-03-26T02:24:02.986Z,5.16
2023-03-26T02:27:07.833Z,5.15
2023-03-26T02:30:15.005Z,5.14
2023-03-26T02:33:17.351Z,5.14
2023-03-26T02:36:22.150Z,5.12
2023-03-26T02:39:24.631Z,5.13
2023-03-26T02:42:26.424Z,5.14
2023-03-26T02:45:28.289Z,5.12
2023-03-26T02:48:29.939Z,5.13
2023-03-26T02:51:34.950Z,5.14
2023-03-26T02:54:37.173Z,5.13
2023-03-26T02:57:38.763Z,5.14
2023-03-26T03:00:40.364Z,5.14
2023-03-26T03:03:41.888Z,5.13
2023-03-26T03:06:44.737Z,5.15
2023-03-26T03:09:46.252Z,5.13
2023-03-26T03:12:48.078Z,5.14
2023-03-26T03:15:49.659Z,5.11
2023-03-26T03:18:54.804Z,5.08
2023-03-26T03:21:56.608Z,5.07
2023-03-26T03:24:59.979Z,5.05
2023-03-26T03:28:01.555Z,5.00
2023-03-26T03:31:03.633Z,4.97
2023-03-26T03:34:05.284Z,4.96
2023-03-26T03:37:06.887Z,4.95
2023-03-26T03:40:11.128Z,4.94
2023-03-26T03:43:12.662Z,4.94
2023-03-26T03:46:14.430Z,4.92
2023-03-26T03:49:16.041Z,4.89
2023-03-26T03:52:18.194Z,4.88
2023-03-26T03:55:19.765Z,4.85
2023-03-26T03:58:28.280Z,4.83
2023-03-26T04:01:30.831Z,4.82
2023-03-26T04:04:32.941Z,4.82
2023-03-26T04:07:35.019Z,4.82
2023-03-26T04:10:36.555Z,4.81
2023-03-26T04:13:38.118Z,4.80
2023-03-26T04:16:39.753Z,4.80
2023-03-26T04:19:42.000Z,4.78
2023-03-26T04:22:44.201Z,4.79
2023-03-26T04:25:50.162Z,4.78
2023-03-26T04:28:59.866Z,4.78
2023-03-26T04:32:06.740Z,4.77
2023-03-26T04:35:13.153Z,4.76
2023-03-26T04:38:18.405Z,4.75
2023-03-26T04:41:20.425Z,4.74
2023-03-26T04:44:25.175Z,4.74
2023-03-26T04:47:27.244Z,4.75
2023-03-26T04:50:28.931Z,4.74
2023-03-26T04:53:30.593Z,4.72
2023-03-26T04:56:51.371Z,4.72
2023-03-26T04:59:53.264Z,4.71
2023-03-26T05:02:57.782Z,4.68
2023-03-26T05:06:01.064Z,4.68
2023-03-26T05:09:02.593Z,4.68
2023-03-26T05:12:04.462Z,4.67
2023-03-26T05:15:06.934Z,4.67
2023-03-26T05:18:09.001Z,4.66
2023-03-26T05:21:11.247Z,4.67
2023-03-26T05:24:12.762Z,4.66
2023-03-26T05:27:17.025Z,4.65
2023-03-26T05:30:21.404Z,4.64
2023-03-26T05:33:23.401Z,4.64
2023-03-26T05:36:25.054Z,4.64
2023-03-26T05:39:27.643Z,4.65
2023-03-26T05:42:29.166Z,4.66
2023-03-26T05:45:30.973Z,4.68
2023-03-26T05:48:32.656Z,4.74
2023-03-26T05:51:34.164Z,4.77
2023-03-26T05:54:35.729Z,4.78
2023-03-26T05:57:37.638Z,4.81
2023-03-26T06:00:39.573Z,4.81
2023-03-26T06:03:41.307Z,4.81
2023-03-26T06:06:43.084Z,4.81
2023-03-26T06:09:45.208Z,4.82
2023-03-26T06:12:46.770Z,4.81
2023-03-26T06:15:48.365Z,4.82
2023-03-26T06:18:56.595Z,4.82
2023-03-26T06:21:59.243Z,4.81
2023-03-26T06:25:01.053Z,4.81
2023-03-26T06:28:02.696Z,4.77
2023-03-26T06:31:04.375Z,4.78
2023-03-26T06:34:06.094Z,4.76
2023-03-26T06:37:07.656Z,4.74
2023-03-26T06:40:09.738Z,4.73
2023-03-26T06:43:11.891Z,4.71
2023-03-26T06:46:13.585Z,4.71
2023-03-26T06:49:15.446Z,4.70
2023-03-26T06:52:17.004Z,4.68
2023-03-26T06:55:18.741Z,4.68
2023-03-26T06:58:21.008Z,4.67
2023-03-26T07:01:23.042Z,4.67
2023-03-26T07:04:24.714Z,4.67
2023-03-26T07:07:26.352Z,4.68
2023-03-26T07:10:27.892Z,4.67
2023-03-26T07:13:29.426Z,4.69
2023-03-26T07:16:31.145Z,4.67
2023-03-26T07:19:33.044Z,4.68
2023-03-26T07:22:35.259Z,4.70
2023-03-26T07:25:37.151Z,4.71
2023-03-26T07:29:03.712Z,4.71
2023-03-26T07:32:12.630Z,4.75
2023-03-26T07:35:33.038Z,4.77
2023-03-26T07:38:52.898Z,4.81
2023-03-26T07:42:15.690Z,4.81
2023-03-26T07:45:24.728Z,4.80
2023-03-26T07:48:31.213Z,4.80
2023-03-26T07:51:33.258Z,4.83
2023-03-26T07:54:35.073Z,4.86
2023-03-26T07:57:54.645Z,4.90
2023-03-26T08:01:02.618Z,4.93
2023-03-26T08:04:23.122Z,4.98
2023-03-26T08:08:00.634Z,5.06
2023-03-26T08:11:30.373Z,5.09
2023-03-26T08:14:44.438Z,5.14
2023-03-26T08:17:53.442Z,5.21
2023-03-26T08:21:01.023Z,5.24
2023-03-26T08:24:25.803Z,5.25
2023-03-26T08:27:30.634Z,5.24
2023-03-26T08:30:32.657Z,5.24
2023-03-26T08:33:36.007Z,5.26
2023-03-26T08:36:38.949Z,5.29
2023-03-26T08:39:42.164Z,5.34
2023-03-26T08:42:58.975Z,5.40
2023-03-26T08:46:28.314Z,5.49
2023-03-26T08:49:38.895Z,5.52
2023-03-26T08:53:01.770Z,5.57
2023-03-26T08:56:20.242Z,5.60
2023-03-26T08:59:40.286Z,5.68
2023-03-26T09:03:22.801Z,5.73
2023-03-26T09:06:27.145Z,5.77
2023-03-26T09:09:59.397Z,5.81
2023-03-26T09:13:18.380Z,5.83
2023-03-26T09:16:31.954Z,5.85
2023-03-26T09:19:54.863Z,5.89
2023-03-26T09:23:16.016Z,5.93
2023-03-26T09:26:27.782Z,6.14
2023-03-26T09:29:53.740Z,6.21
2023-03-26T09:33:20.369Z,6.24
2023-03-26T09:36:47.247Z,6.24
2023-03-26T09:39:57.930Z,6.21
2023-03-26T09:43:11.122Z,6.22
2023-03-26T09:46:47.781Z,6.23
2023-03-26T09:50:00.986Z,6.32
2023-03-26T09:53:21.322Z,6.44
2023-03-26T09:56:28.741Z,6.53
2023-03-26T09:59:39.537Z,6.57
2023-03-26T10:03:02.964Z,6.55
2023-03-26T10:06:37.350Z,6.52
2023-03-26T10:10:06.785Z,6.52
2023-03-26T10:13:26.383Z,6.56
2023-03-26T10:16:49.808Z,6.58
2023-03-26T10:20:22.467Z,6.62
2023-03-26T10:23:45.609Z,6.72
2023-03-26T10:27:10.160Z,6.90
2023-03-26T10:30:24.694Z,7.06
2023-03-26T10:33:35.310Z,7.16
2023-03-26T10:36:42.566Z,7.20
2023-03-26T10:40:10.119Z,7.18
2023-03-26T10:43:24.164Z,7.15
2023-03-26T10:46:56.192Z,7.14
2023-03-26T10:50:28.931Z,7.08
2023-03-26T10:53:41.222Z,7.14
2023-03-26T10:56:46.530Z,7.33
2023-03-26T10:59:48.110Z,7.51
2023-03-26T11:03:10.354Z,7.64
2023-03-26T11:06:30.950Z,7.69
2023-03-26T11:09:46.991Z,7.70
2023-03-26T11:13:04.844Z,7.77
2023-03-26T11:16:10.951Z,7.86
2023-03-26T11:19:36.992Z,7.97
2023-03-26T11:22:59.471Z,8.03
2023-03-26T11:26:22.853Z,8.07
2023-03-26T11:29:48.514Z,8.01
2023-03-26T11:32:57.138Z,7.95
2023-03-26T11:36:06.064Z,7.88
2023-03-26T11:39:14.057Z,7.79
2023-03-26T11:42:18.475Z,7.69
2023-03-26T11:45:25.426Z,7.70
2023-03-26T11:48:36.021Z,7.83
2023-03-26T11:51:39.448Z,8.03
2023-03-26T11:54:41.075Z,8.22
2023-03-26T11:57:49.561Z,8.36
2023-03-26T12:00:54.207Z,8.44
2023-03-26T12:03:58.762Z,8.50
2023-03-26T12:07:17.123Z,8.42
2023-03-26T12:10:21.863Z,8.42
2023-03-26T12:13:35.656Z,8.55
2023-03-26T12:16:37.328Z,8.56
2023-03-26T12:19:41.726Z,8.55
2023-03-26T12:22:44.328Z,8.49
2023-03-26T12:26:05.890Z,8.45
2023-03-26T12:29:11.341Z,8.43
2023-03-26T12:32:14.394Z,8.46
2023-03-26T12:35:26.735Z,8.46
2023-03-26T12:38:33.816Z,8.38
2023-03-26T12:44:43.007Z,8.29
2023-03-26T12:45:02.359Z,8.23
2023-03-26T12:48:04.866Z,8.28
2023-03-26T12:51:41.764Z,8.35
2023-03-26T12:54:55.557Z,8.45
2023-03-26T12:58:15.454Z,8.49
2023-03-26T13:01:19.742Z,8.42
2023-03-26T13:04:27.550Z,8.38
2023-03-26T13:07:37.935Z,8.41
2023-03-26T13:10:50.672Z,8.46
2023-03-26T13:14:00.787Z,8.52
2023-03-26T13:17:13.912Z,8.59
2023-03-26T13:20:21.591Z,8.59
2023-03-26T13:23:41.799Z,8.62
2023-03-26T13:27:14.918Z,8.66
2023-03-26T13:30:31.553Z,8.72
2023-03-26T13:33:56.303Z,8.88
2023-03-26T13:37:30.935Z,8.92
2023-03-26T13:41:08.137Z,8.85
2023-03-26T13:44:32.386Z,8.75
2023-03-26T13:47:38.543Z,8.66
2023-03-26T13:50:43.507Z,8.59
2023-03-26T13:53:50.765Z,8.52
2023-03-26T13:57:01.376Z,8.41
2023-03-26T14:00:21.540Z,8.23
2023-03-26T14:03:29.630Z,8.10
2023-03-26T14:06:42.425Z,8.09
2023-03-26T14:09:53.446Z,8.11
2023-03-26T14:13:19.387Z,8.13
2023-03-26T14:16:29.229Z,8.08
2023-03-26T14:19:52.040Z,8.02
2023-03-26T14:23:22.848Z,7.93
2023-03-26T14:26:40.425Z,7.86
2023-03-26T14:30:11.437Z,7.82
2023-03-26T14:33:34.075Z,7.76
2023-03-26T14:36:49.041Z,7.77
2023-03-26T14:40:05.753Z,7.79
2023-03-26T14:43:10.161Z,7.74
2023-03-26T14:46:50.313Z,7.69
2023-03-26T14:50:04.231Z,7.56
2023-03-26T14:53:18.761Z,7.51
2023-03-26T14:56:38.972Z,7.46
2023-03-26T15:00:06.718Z,7.45
2023-03-26T15:03:29.614Z,7.42
2023-03-26T15:07:02.924Z,7.37
2023-03-26T15:10:10.349Z,7.30
2023-03-26T15:13:39.721Z,7.23
2023-03-26T15:17:20.619Z,7.19
2023-03-26T15:20:50.053Z,7.15
2023-03-26T15:24:12.600Z,7.14
2023-03-26T15:27:29.343Z,7.16
2023-03-26T15:30:42.967Z,7.06
2023-03-26T15:34:06.209Z,6.99
2023-03-26T15:37:27.410Z,6.94
2023-03-26T15:40:40.450Z,6.91
2023-03-26T15:47:32.832Z,6.77
2023-03-26T15:50:54.416Z,6.68
2023-03-26T15:54:08.669Z,6.61
2023-03-26T15:57:39.117Z,6.56
2023-03-26T16:01:32.628Z,6.48
2023-03-26T16:05:21.894Z,6.42
2023-03-26T16:08:39.111Z,6.36
2023-03-26T16:12:00.464Z,6.31
2023-03-26T16:15:09.449Z,6.30
2023-03-26T16:18:11.812Z,6.27
2023-03-26T16:21:35.076Z,6.24
2023-03-26T16:24:41.003Z,6.19
2023-03-26T16:27:44.568Z,6.15
2023-03-26T16:31:22.910Z,6.05
2023-03-26T16:34:52.931Z,5.95
2023-03-26T16:38:11.501Z,5.91
2023-03-26T16:41:40.376Z,5.86
2023-03-26T16:44:52.890Z,5.82
2023-03-26T16:48:17.471Z,5.74
2023-03-26T16:51:34.405Z,5.67
2023-03-26T16:54:50.045Z,5.59
2023-03-26T16:58:03.538Z,5.53
2023-03-26T17:01:11.830Z,5.47
2023-03-26T17:04:20.672Z,5.45
2023-03-26T17:07:58.102Z,5.38
2023-03-26T17:11:41.627Z,5.31
2023-03-26T17:14:48.839Z,5.23
2023-03-26T17:18:16.409Z,5.14
2023-03-26T17:21:26.809Z,5.03
2023-03-26T17:24:49.621Z,4.97
2023-03-26T17:28:09.643Z,4.92
2023-03-26T17:31:40.272Z,4.87
2023-03-26T17:34:54.716Z,4.81
2023-03-26T17:37:56.624Z,4.74
2023-03-26T17:40:59.783Z,4.68
2023-03-26T17:44:25.747Z,4.62
2023-03-26T17:47:38.224Z,4.54
2023-03-26T17:50:47.243Z,4.50
2023-03-26T17:53:49.894Z,4.45
2023-03-26T17:56:54.577Z,4.53
2023-03-26T17:59:58.867Z,4.54
2023-03-26T18:03:04.695Z,4.50
2023-03-26T18:06:12.003Z,4.46
2023-03-26T18:09:38.500Z,4.37
2023-03-26T18:13:23.684Z,4.27
2023-03-26T18:16:38.908Z,4.20
2023-03-26T18:19:53.134Z,4.16
2023-03-26T18:22:55.245Z,4.13
2023-03-26T18:25:59.708Z,4.08
2023-03-26T18:29:13.429Z,4.00
2023-03-26T18:32:24.013Z,3.98
2023-03-26T18:35:27.381Z,3.95
2023-03-26T18:38:34.966Z,3.92
2023-03-26T18:41:42.172Z,3.86
2023-03-26T18:44:44.043Z,3.78
2023-03-26T18:47:47.686Z,3.73
2023-03-26T18:50:59.849Z,3.69
2023-03-26T18:54:09.009Z,3.65
2023-03-26T18:57:16.011Z,3.60
2023-03-26T19:00:25.441Z,3.56
2023-03-26T19:03:29.232Z,3.52
2023-03-26T19:06:38.432Z,3.49
2023-03-26T19:09:42.054Z,3.48
2023-03-26T19:12:43.615Z,3.48
2023-03-26T19:15:47.515Z,3.44
2023-03-26T19:18:49.703Z,3.41
2023-03-26T19:21:51.565Z,3.39
2023-03-26T19:24:59.601Z,3.38
2023-03-26T19:28:01.663Z,3.35
2023-03-26T19:31:12.471Z,3.31
2023-03-26T19:34:14.079Z,3.27
2023-03-26T19:37:29.961Z,3.25
2023-03-26T19:40:33.855Z,3.22
2023-03-26T19:43:35.560Z,3.18
2023-03-26T19:46:53.993Z,3.17
2023-03-26T19:50:03.910Z,3.12
2023-03-26T19:53:16.609Z,3.10
2023-03-26T19:56:20.803Z,3.07
2023-03-26T19:59:22.382Z,3.05
2023-03-26T20:02:25.072Z,3.03
2023-03-26T20:05:29.775Z,3.00
2023-03-26T20:08:31.337Z,2.99
2023-03-26T20:11:38.111Z,2.95
2023-03-26T20:14:40.124Z,2.92
2023-03-26T20:17:42.931Z,2.91
2023-03-26T20:20:45.085Z,2.88
2023-03-26T20:23:46.642Z,2.88
2023-03-26T20:26:48.242Z,2.87
2023-03-26T20:29:49.782Z,2.92
2023-03-26T20:33:12.849Z,2.97
2023-03-26T20:36:14.215Z,2.97
2023-03-26T20:39:35.884Z,2.96
2023-03-26T20:42:37.825Z,2.93
2023-03-26T20:45:39.733Z,2.92
2023-03-26T20:48:41.547Z,2.88
2023-03-26T20:51:44.583Z,2.87
2023-03-26T20:54:46.094Z,2.84
2023-03-26T20:57:48.316Z,2.81
2023-03-26T21:00:50.828Z,2.80
2023-03-26T21:03:52.388Z,2.80
2023-03-26T21:07:00.417Z,2.80
2023-03-26T21:10:05.746Z,2.76
2023-03-26T21:13:13.608Z,2.72
2023-03-26T21:16:15.540Z,2.69
2023-03-26T21:19:17.814Z,2.68
2023-03-26T21:22:44.503Z,2.66
2023-03-26T21:26:01.498Z,2.66
2023-03-26T21:29:03.237Z,2.64
2023-03-26T21:32:05.734Z,2.63
2023-03-26T21:35:08.547Z,2.63
2023-03-26T21:38:11.209Z,2.59
2023-03-26T21:41:36.069Z,2.59
2023-03-26T21:44:38.687Z,2.56
2023-03-26T21:47:41.855Z,2.54
2023-03-26T21:50:43.982Z,2.53
2023-03-26T21:53:45.962Z,2.50
2023-03-26T21:56:50.564Z,2.52
2023-03-26T22:00:16.364Z,2.51
2023-03-26T22:03:33.290Z,2.50
2023-03-26T22:06:42.970Z,2.47
2023-03-26T22:09:45.216Z,2.44
2023-03-26T22:12:46.801Z,2.42
2023-03-26T22:15:49.376Z,2.44
2023-03-26T22:18:52.800Z,2.44
2023-03-26T22:21:54.455Z,2.45
2023-03-26T22:24:56.032Z,2.46
2023-03-26T22:27:57.666Z,2.42
2023-03-26T22:30:59.720Z,2.40
2023-03-26T22:34:01.576Z,2.39
2023-03-26T22:37:03.112Z,2.34
2023-03-26T22:40:09.056Z,2.33
2023-03-26T22:43:10.687Z,2.28
2023-03-26T22:46:12.712Z,2.24
2023-03-26T22:49:14.591Z,2.21
2023-03-26T22:52:16.325Z,2.17
2023-03-26T22:55:28.293Z,2.13
2023-03-26T22:58:32.806Z,2.09
2023-03-26T23:01:34.803Z,2.04
2023-03-26T23:04:37.704Z,2.01
2023-03-26T23:07:40.552Z,1.97
2023-03-26T23:10:42.645Z,1.94
2023-03-26T23:13:46.089Z,1.90
2023-03-26T23:16:47.872Z,1.85
2023-03-26T23:19:49.478Z,1.82
2023-03-26T23:22:51.391Z,1.78
2023-03-26T23:25:58.897Z,1.72
2023-03-26T23:29:01.489Z,1.67
2023-03-26T23:32:03.122Z,1.60
2023-03-26T23:35:24.798Z,1.58
2023-03-26T23:38:29.128Z,1.56
2023-03-26T23:41:45.999Z,1.52
2023-03-26T23:44:47.593Z,1.47
2023-03-26T23:47:49.121Z,1.43
2023-03-26T23:50:52.731Z,1.37
2023-03-26T23:54:05.216Z,1.36
2023-03-26T23:57:07.701Z,1.32
